createdAt,value
2023-05-01T00:00:25.429Z,11.04
2023-05-01T00:01:28.805Z,11.03
2023-05-01T00:02:32.252Z,11.02
2023-05-01T00:03:34.140Z,10.99
2023-05-01T00:04:36.162Z,10.94
2023-05-01T00:05:37.901Z,10.97
2023-05-01T00:06:41.797Z,10.95
2023-05-01T00:07:43.573Z,10.76
2023-05-01T00:08:47.704Z,10.88
2023-05-01T00:09:49.384Z,10.89
2023-05-01T00:10:50.908Z,10.72
2023-05-01T00:11:52.544Z,10.85
2023-05-01T00:12:54.238Z,10.84
2023-05-01T00:13:55.784Z,10.62
2023-05-01T00:15:00.606Z,10.78
2023-05-01T00:16:02.626Z,10.81
2023-05-01T00:17:04.330Z,10.81
2023-05-01T00:18:06.018Z,10.82
2023-05-01T00:19:12.649Z,10.70
2023-05-01T00:20:14.338Z,10.82
2023-05-01T00:21:16.892Z,10.70
2023-05-01T00:22:18.460Z,10.79
2023-05-01T00:23:26.687Z,10.82
2023-05-01T00:24:28.273Z,10.82
2023-05-01T00:25:31.254Z,10.79
2023-05-01T00:26:32.968Z,10.79
2023-05-01T00:27:37.787Z,10.78
2023-05-01T00:28:39.432Z,10.80
2023-05-01T00:29:42.137Z,10.66
2023-05-01T00:30:43.667Z,10.62
2023-05-01T00:31:45.736Z,10.77
2023-05-01T00:32:47.563Z,10.81
2023-05-01T00:33:49.091Z,10.62
2023-05-01T00:34:50.786Z,10.73
2023-05-01T00:35:52.870Z,10.57
2023-05-01T00:36:57.073Z,10.69
2023-05-01T00:37:58.688Z,10.71
2023-05-01T00:39:00.413Z,10.52
2023-05-01T00:40:07.113Z,10.64
2023-05-01T00:41:11.248Z,10.66
2023-05-01T00:42:12.861Z,10.66
2023-05-01T00:43:14.620Z,10.68
2023-05-01T00:44:16.799Z,10.55
2023-05-01T00:45:18.668Z,10.66
2023-05-01T00:46:20.425Z,10.53
2023-05-01T00:47:22.334Z,10.67
2023-05-01T00:48:24.217Z,10.67
2023-05-01T00:49:27.089Z,10.71
2023-05-01T00:50:29.832Z,10.71
2023-05-01T00:51:31.843Z,10.73
2023-05-01T00:52:33.821Z,10.74
2023-05-01T00:53:37.719Z,10.69
2023-05-01T00:54:40.566Z,10.68
2023-05-01T00:55:45.697Z,10.68
2023-05-01T00:56:48.154Z,10.69
2023-05-01T00:57:52.817Z,10.68
2023-05-01T00:58:54.485Z,10.71
2023-05-01T00:59:56.389Z,10.55
2023-05-01T01:01:01.731Z,10.64
2023-05-01T01:02:03.543Z,10.61
2023-05-01T01:03:05.363Z,10.43
2023-05-01T01:04:07.136Z,10.56
2023-05-01T01:05:09.296Z,10.55
2023-05-01T01:06:17.281Z,10.48
2023-05-01T01:07:27.403Z,10.49
2023-05-01T01:08:37.439Z,10.47
2023-05-01T01:09:54.074Z,10.50
2023-05-01T01:11:05.223Z,10.43
2023-05-01T01:12:32.694Z,10.43
2023-05-01T01:14:08.590Z,10.46
2023-05-01T01:15:18.890Z,10.44
2023-05-01T01:16:32.923Z,10.45
2023-05-01T01:17:50.752Z,10.36
2023-05-01T01:19:39.136Z,10.33
2023-05-01T01:21:11.637Z,10.34
2023-05-01T01:22:24.994Z,10.34
2023-05-01T01:23:42.141Z,10.32
2023-05-01T01:25:07.238Z,10.33
2023-05-01T01:26:24.045Z,10.36
2023-05-01T01:27:58.371Z,10.36
2023-05-01T01:29:26.933Z,10.31
2023-05-01T01:30:47.069Z,10.26
2023-05-01T01:32:31.626Z,10.23
2023-05-01T01:33:54.639Z,10.25
2023-05-01T01:35:03.184Z,10.29
2023-05-01T01:36:13.224Z,10.29
2023-05-01T01:37:22.716Z,10.27
2023-05-01T01:38:37.722Z,10.28
2023-05-01T01:40:04.114Z,10.22
2023-05-01T01:41:24.026Z,10.22
2023-05-01T01:42:34.889Z,10.25
2023-05-01T01:43:46.497Z,10.25
2023-05-01T01:44:52.851Z,10.28
2023-05-01T01:46:01.240Z,10.23
2023-05-01T01:47:09.144Z,10.26
2023-05-01T01:48:17.649Z,10.24
2023-05-01T01:49:25.857Z,10.24
2023-05-01T01:50:28.937Z,10.25
2023-05-01T01:51:31.261Z,10.27
2023-05-01T01:52:35.291Z,10.30
2023-05-01T01:53:39.308Z,10.28
2023-05-01T01:54:58.534Z,10.28
2023-05-01T01:56:04.321Z,10.24
2023-05-01T01:57:12.999Z,10.26
2023-05-01T01:58:18.249Z,10.26
2023-05-01T01:59:24.311Z,10.26
2023-05-01T02:00:29.821Z,10.25
2023-05-01T02:01:33.726Z,10.28
2023-05-01T02:02:38.817Z,10.26
2023-05-01T02:03:41.877Z,10.30
2023-05-01T02:04:44.731Z,10.29
2023-05-01T02:05:48.144Z,10.30
2023-05-01T02:06:50.072Z,10.30
2023-05-01T02:07:53.273Z,10.30
2023-05-01T02:08:56.880Z,10.29
2023-05-01T02:10:02.404Z,10.28
2023-05-01T02:11:05.425Z,10.30
2023-05-01T02:12:09.843Z,10.28
2023-05-01T02:13:14.740Z,10.28
2023-05-01T02:14:18.687Z,10.26
2023-05-01T02:15:21.425Z,10.27
2023-05-01T02:16:25.652Z,10.24
2023-05-01T02:17:29.084Z,10.20
2023-05-01T02:18:34.726Z,10.22
2023-05-01T02:19:41.714Z,10.23
2023-05-01T02:20:44.519Z,10.21
2023-05-01T02:21:47.653Z,10.22
2023-05-01T02:22:53.228Z,10.21
2023-05-01T02:23:55.341Z,10.21
2023-05-01T02:25:01.059Z,10.17
2023-05-01T02:26:04.407Z,10.13
2023-05-01T02:27:26.499Z,10.12
2023-05-01T02:28:29.869Z,10.14
2023-05-01T02:29:36.871Z,10.15
2023-05-01T02:30:41.200Z,10.15
2023-05-01T02:31:43.033Z,10.12
2023-05-01T02:32:47.161Z,10.09
2023-05-01T02:33:48.883Z,10.07
2023-05-01T02:34:50.565Z,9.89
2023-05-01T02:35:52.436Z,10.03
2023-05-01T02:36:56.400Z,10.02
2023-05-01T02:37:58.216Z,10.01
2023-05-01T02:39:00.226Z,9.80
2023-05-01T02:40:05.627Z,9.92
2023-05-01T02:41:09.845Z,9.90
2023-05-01T02:42:13.170Z,9.87
2023-05-01T02:43:17.829Z,9.90
2023-05-01T02:44:20.658Z,9.88
2023-05-01T02:45:25.232Z,9.90
2023-05-01T02:46:28.157Z,9.87
2023-05-01T02:47:33.848Z,9.90
2023-05-01T02:48:37.636Z,9.93
2023-05-01T02:49:41.011Z,9.93
2023-05-01T02:50:46.545Z,9.94
2023-05-01T02:51:48.831Z,9.94
2023-05-01T02:52:53.433Z,9.94
2023-05-01T02:54:14.190Z,9.93
2023-05-01T02:55:17.349Z,9.93
2023-05-01T02:56:19.265Z,9.93
2023-05-01T02:57:20.949Z,9.92
2023-05-01T02:58:22.634Z,9.92
2023-05-01T02:59:26.343Z,9.77
2023-05-01T03:00:30.478Z,9.88
2023-05-01T03:01:32.861Z,9.90
2023-05-01T03:02:34.825Z,9.92
2023-05-01T03:03:38.581Z,9.77
2023-05-01T03:04:40.807Z,9.88
2023-05-01T03:05:42.676Z,9.90
2023-05-01T03:06:44.701Z,9.90
2023-05-01T03:07:49.124Z,9.90
2023-05-01T03:08:50.732Z,9.92
2023-05-01T03:09:52.638Z,9.77
2023-05-01T03:10:54.226Z,9.89
2023-05-01T03:11:58.270Z,9.91
2023-05-01T03:13:00.546Z,9.89
2023-05-01T03:14:02.249Z,9.87
2023-05-01T03:15:04.161Z,9.74
2023-05-01T03:16:08.852Z,9.85
2023-05-01T03:17:13.331Z,9.84
2023-05-01T03:18:15.021Z,9.89
2023-05-01T03:19:16.500Z,9.75
2023-05-01T03:20:18.209Z,9.83
2023-05-01T03:21:19.806Z,9.83
2023-05-01T03:22:21.778Z,9.83
2023-05-01T03:23:26.102Z,9.83
2023-05-01T03:24:28.217Z,9.85
2023-05-01T03:25:30.018Z,9.86
2023-05-01T03:26:32.967Z,9.86
2023-05-01T03:27:36.766Z,9.82
2023-05-01T03:28:40.994Z,9.85
2023-05-01T03:29:43.009Z,9.70
2023-05-01T03:30:45.027Z,9.74
2023-05-01T03:31:46.982Z,9.81
2023-05-01T03:32:48.925Z,9.69
2023-05-01T03:33:56.669Z,9.79
2023-05-01T03:34:58.394Z,9.78
2023-05-01T03:36:05.465Z,9.83
2023-05-01T03:37:08.568Z,9.77
2023-05-01T03:38:10.405Z,9.65
2023-05-01T03:39:35.093Z,9.76
2023-05-01T03:40:51.698Z,9.74
2023-05-01T03:42:16.109Z,9.70
2023-05-01T03:43:18.953Z,9.71
2023-05-01T03:44:20.528Z,9.56
2023-05-01T03:45:22.192Z,9.59
2023-05-01T03:46:24.128Z,9.60
2023-05-01T03:47:29.004Z,9.60
2023-05-01T03:48:31.074Z,9.60
2023-05-01T03:49:32.591Z,9.46
2023-05-01T03:50:34.193Z,9.54
2023-05-01T03:51:35.892Z,9.57
2023-05-01T03:52:40.160Z,9.57
2023-05-01T03:53:41.916Z,9.60
2023-05-01T03:54:44.609Z,9.61
2023-05-01T03:55:54.617Z,9.58
2023-05-01T03:56:56.419Z,9.58
2023-05-01T03:57:58.708Z,9.60
2023-05-01T03:59:00.364Z,9.56
2023-05-01T04:00:02.030Z,9.43
2023-05-01T04:01:06.231Z,9.55
2023-05-01T04:02:10.528Z,9.51
2023-05-01T04:03:15.323Z,9.45
2023-05-01T04:04:18.592Z,9.45
2023-05-01T04:05:25.694Z,9.46
2023-05-01T04:06:32.982Z,9.44
2023-05-01T04:07:34.788Z,9.43
2023-05-01T04:08:36.292Z,9.30
2023-05-01T04:09:37.989Z,9.41
2023-05-01T04:10:39.499Z,9.28
2023-05-01T04:11:41.181Z,9.37
2023-05-01T04:12:42.683Z,9.25
2023-05-01T04:13:44.386Z,9.35
2023-05-01T04:14:47.982Z,9.38
2023-05-01T04:15:50.015Z,9.39
2023-05-01T04:16:52.080Z,9.42
2023-05-01T04:17:55.767Z,9.45
2023-05-01T04:18:58.105Z,9.46
2023-05-01T04:20:01.468Z,9.49
2023-05-01T04:21:03.699Z,9.52
2023-05-01T04:22:05.676Z,9.54
2023-05-01T04:23:12.690Z,9.52
2023-05-01T04:24:14.501Z,9.52
2023-05-01T04:25:16.185Z,9.55
2023-05-01T04:26:19.474Z,9.55
2023-05-01T04:27:21.670Z,9.55
2023-05-01T04:28:23.457Z,9.54
2023-05-01T04:29:25.282Z,9.50
2023-05-01T04:31:31.306Z,9.40
2023-05-01T04:32:35.543Z,9.42
2023-05-01T04:33:40.173Z,9.45
2023-05-01T04:34:44.851Z,9.48
2023-05-01T04:35:51.361Z,9.50
2023-05-01T04:36:53.248Z,9.48
2023-05-01T04:37:57.129Z,9.47
2023-05-01T04:38:59.263Z,9.47
2023-05-01T04:40:05.294Z,9.47
2023-05-01T04:41:07.024Z,9.48
2023-05-01T04:42:09.008Z,9.52
2023-05-01T04:43:13.240Z,9.51
2023-05-01T04:44:17.769Z,9.54
2023-05-01T04:45:21.953Z,9.57
2023-05-01T04:46:26.681Z,9.58
2023-05-01T04:47:28.923Z,9.59
2023-05-01T04:48:30.718Z,9.61
2023-05-01T04:49:32.812Z,9.61
2023-05-01T04:50:37.712Z,9.62
2023-05-01T04:51:39.528Z,9.65
2023-05-01T04:52:44.171Z,9.66
2023-05-01T04:53:48.277Z,9.66
2023-05-01T04:54:57.981Z,9.66
2023-05-01T04:56:03.901Z,9.65
2023-05-01T04:57:06.579Z,9.68
2023-05-01T04:58:08.169Z,9.58
2023-05-01T04:59:13.672Z,9.68
2023-05-01T05:00:15.710Z,9.73
2023-05-01T05:01:26.046Z,9.75
2023-05-01T05:02:29.957Z,9.73
2023-05-01T05:03:32.034Z,9.77
2023-05-01T05:04:34.352Z,9.75
2023-05-01T05:05:36.026Z,9.79
2023-05-01T05:06:39.704Z,9.79
2023-05-01T05:07:46.498Z,9.78
2023-05-01T05:09:20.467Z,9.76
2023-05-01T05:10:22.268Z,9.79
2023-05-01T05:11:35.616Z,9.82
2023-05-01T05:12:40.064Z,9.84
2023-05-01T05:13:41.684Z,9.83
2023-05-01T05:14:47.953Z,9.81
2023-05-01T05:15:51.819Z,9.87
2023-05-01T05:16:56.363Z,9.91
2023-05-01T05:17:58.228Z,9.91
2023-05-01T05:19:00.014Z,9.95
2023-05-01T05:20:05.227Z,9.98
2023-05-01T05:21:10.463Z,10.01
2023-05-01T05:22:17.518Z,10.00
2023-05-01T05:23:41.685Z,10.02
2023-05-01T05:24:43.261Z,10.04
2023-05-01T05:25:44.978Z,10.05
2023-05-01T05:26:49.701Z,10.05
2023-05-01T05:27:51.307Z,9.93
2023-05-01T05:28:53.053Z,10.05
2023-05-01T05:29:57.688Z,10.07
2023-05-01T05:30:59.839Z,10.09
2023-05-01T05:32:01.968Z,10.04
2023-05-01T05:33:04.645Z,10.08
2023-05-01T05:34:06.257Z,10.01
2023-05-01T05:35:08.553Z,10.04
2023-05-01T05:36:11.061Z,10.08
2023-05-01T05:37:17.821Z,10.07
2023-05-01T05:38:29.063Z,10.04
2023-05-01T05:39:33.370Z,10.05
2023-05-01T05:40:34.994Z,10.03
2023-05-01T05:41:36.574Z,9.91
2023-05-01T05:42:38.302Z,9.99
2023-05-01T05:43:41.277Z,9.99
2023-05-01T05:44:45.402Z,9.99
2023-05-01T05:45:47.806Z,9.88
2023-05-01T05:46:51.999Z,9.95
2023-05-01T05:48:02.972Z,10.00
2023-05-01T05:49:07.522Z,10.00
2023-05-01T05:50:10.006Z,10.00
2023-05-01T05:51:14.215Z,10.01
2023-05-01T05:52:16.225Z,9.99
2023-05-01T05:53:18.641Z,9.99
2023-05-01T05:54:20.359Z,10.00
2023-05-01T05:55:23.419Z,9.98
2023-05-01T05:56:38.127Z,9.97
2023-05-01T05:57:40.746Z,10.00
2023-05-01T05:58:44.751Z,9.98
2023-05-01T05:59:46.472Z,9.98
2023-05-01T06:00:50.479Z,10.02
2023-05-01T06:01:53.065Z,10.02
2023-05-01T06:02:54.799Z,10.03
2023-05-01T06:03:57.602Z,10.08
2023-05-01T06:05:03.482Z,10.08
2023-05-01T06:06:08.327Z,10.09
2023-05-01T06:07:09.961Z,9.98
2023-05-01T06:08:12.003Z,10.09
2023-05-01T06:09:13.674Z,10.13
2023-05-01T06:10:15.624Z,10.13
2023-05-01T06:11:21.540Z,10.13
2023-05-01T06:12:24.079Z,10.13
2023-05-01T06:13:26.721Z,10.09
2023-05-01T06:14:28.432Z,10.13
2023-05-01T06:15:30.091Z,10.12
2023-05-01T06:16:34.363Z,10.13
2023-05-01T06:17:37.477Z,10.16
2023-05-01T06:18:39.244Z,10.16
2023-05-01T06:19:41.429Z,9.99
2023-05-01T06:20:45.357Z,10.08
2023-05-01T06:21:47.014Z,10.14
2023-05-01T06:22:50.995Z,10.14
2023-05-01T06:23:57.020Z,10.11
2023-05-01T06:25:03.155Z,10.10
2023-05-01T06:26:06.346Z,10.13
2023-05-01T06:27:08.141Z,10.16
2023-05-01T06:28:09.659Z,10.02
2023-05-01T06:29:11.868Z,10.18
2023-05-01T06:30:16.363Z,10.21
2023-05-01T06:31:17.970Z,10.22
2023-05-01T06:32:25.368Z,10.27
2023-05-01T06:33:27.494Z,10.27
2023-05-01T06:34:43.388Z,10.26
2023-05-01T06:35:47.037Z,10.15
2023-05-01T06:36:50.910Z,10.29
2023-05-01T06:37:52.555Z,10.34
2023-05-01T06:38:54.308Z,10.19
2023-05-01T06:39:57.201Z,10.32
2023-05-01T06:40:59.216Z,10.35
2023-05-01T06:42:04.617Z,10.43
2023-05-01T06:43:15.561Z,10.45
2023-05-01T06:44:20.612Z,10.45
2023-05-01T06:45:22.262Z,10.43
2023-05-01T06:46:27.044Z,10.44
2023-05-01T06:47:30.770Z,10.41
2023-05-01T06:48:36.950Z,10.39
2023-05-01T06:49:38.729Z,10.46
2023-05-01T06:50:41.782Z,10.47
2023-05-01T06:51:43.228Z,10.34
2023-05-01T06:52:47.410Z,10.50
2023-05-01T06:53:49.183Z,10.52
2023-05-01T06:54:51.277Z,10.53
2023-05-01T06:55:52.848Z,10.29
2023-05-01T06:56:54.611Z,10.52
2023-05-01T06:57:56.150Z,10.35
2023-05-01T06:58:57.955Z,10.47
2023-05-01T06:59:59.549Z,10.36
2023-05-01T07:01:01.425Z,10.52
2023-05-01T07:02:03.001Z,10.43
2023-05-01T07:03:05.161Z,10.56
2023-05-01T07:04:09.291Z,10.60
2023-05-01T07:05:10.910Z,10.51
2023-05-01T07:06:12.542Z,10.66
2023-05-01T07:07:14.264Z,10.56
2023-05-01T07:08:16.038Z,10.73
2023-05-01T07:09:21.325Z,10.63
2023-05-01T07:10:25.717Z,10.76
2023-05-01T07:11:27.524Z,10.81
2023-05-01T07:12:29.632Z,10.64
2023-05-01T07:13:31.230Z,10.78
2023-05-01T07:14:35.811Z,10.71
2023-05-01T07:15:37.899Z,10.84
2023-05-01T07:16:39.790Z,10.93
2023-05-01T07:17:43.802Z,10.98
2023-05-01T07:18:45.387Z,11.03
2023-05-01T07:19:47.045Z,11.04
2023-05-01T07:20:50.067Z,11.00
2023-05-01T07:21:51.766Z,11.12
2023-05-01T07:22:53.302Z,11.08
2023-05-01T07:23:54.938Z,11.21
2023-05-01T07:25:01.201Z,11.28
2023-05-01T07:26:02.781Z,11.32
2023-05-01T07:27:04.455Z,11.38
2023-05-01T07:28:08.141Z,11.43
2023-05-01T07:29:09.761Z,11.45
2023-05-01T07:30:11.842Z,11.50
2023-05-01T07:31:13.536Z,11.54
2023-05-01T07:32:15.257Z,11.45
2023-05-01T07:33:19.347Z,11.58
2023-05-01T07:34:21.205Z,11.59
2023-05-01T07:35:22.828Z,11.63
2023-05-01T07:36:24.392Z,11.48
2023-05-01T07:37:27.087Z,11.65
2023-05-01T07:38:28.688Z,11.71
2023-05-01T07:39:31.073Z,11.79
2023-05-01T07:40:34.004Z,11.81
2023-05-01T07:41:35.827Z,11.82
2023-05-01T07:42:38.741Z,11.82
2023-05-01T07:43:40.409Z,11.82
2023-05-01T07:44:41.960Z,11.62
2023-05-01T07:45:55.974Z,11.72
2023-05-01T07:47:03.129Z,11.80
2023-05-01T07:48:07.434Z,11.81
2023-05-01T07:49:11.683Z,11.87
2023-05-01T07:50:13.305Z,11.93
2023-05-01T07:51:18.456Z,11.98
2023-05-01T07:52:20.066Z,12.05
2023-05-01T07:53:24.510Z,12.14
2023-05-01T07:54:26.090Z,12.16
2023-05-01T07:55:27.831Z,12.17
2023-05-01T07:56:29.353Z,12.11
2023-05-01T07:57:33.520Z,12.27
2023-05-01T07:58:36.982Z,12.34
2023-05-01T07:59:38.636Z,12.42
2023-05-01T08:00:45.273Z,12.50
2023-05-01T08:01:48.969Z,12.60
2023-05-01T08:02:51.803Z,12.60
2023-05-01T08:03:53.659Z,12.62
2023-05-01T08:04:55.607Z,12.62
2023-05-01T08:05:57.448Z,12.67
2023-05-01T08:06:58.996Z,12.51
2023-05-01T08:08:00.755Z,12.60
2023-05-01T08:09:02.366Z,12.53
2023-05-01T08:10:04.356Z,12.64
2023-05-01T08:11:10.616Z,12.66
2023-05-01T08:12:14.631Z,12.70
2023-05-01T08:13:16.485Z,12.67
2023-05-01T08:14:19.363Z,12.73
2023-05-01T08:15:21.747Z,12.75
2023-05-01T08:16:23.389Z,12.74
2023-05-01T08:17:27.589Z,12.76
2023-05-01T08:18:30.099Z,12.73
2023-05-01T08:19:32.181Z,12.75
2023-05-01T08:20:33.855Z,12.75
2023-05-01T08:21:35.608Z,12.74
2023-05-01T08:22:39.477Z,12.77
2023-05-01T08:23:41.096Z,12.76
2023-05-01T08:24:42.974Z,12.79
2023-05-01T08:25:51.587Z,12.80
2023-05-01T08:26:53.308Z,12.82
2023-05-01T08:27:54.870Z,12.60
2023-05-01T08:28:56.481Z,12.70
2023-05-01T08:30:00.429Z,12.59
2023-05-01T08:31:03.786Z,12.77
2023-05-01T08:32:05.580Z,12.80
2023-05-01T08:33:07.180Z,12.65
2023-05-01T08:34:08.768Z,12.80
2023-05-01T08:35:10.379Z,12.82
2023-05-01T08:36:12.254Z,12.69
2023-05-01T08:37:13.897Z,12.83
2023-05-01T08:38:15.781Z,12.84
2023-05-01T08:39:19.689Z,12.85
2023-05-01T08:40:23.331Z,12.84
2023-05-01T08:41:29.452Z,12.80
2023-05-01T08:42:32.378Z,12.84
2023-05-01T08:43:34.090Z,12.81
2023-05-01T08:44:39.357Z,12.75
2023-05-01T08:45:46.042Z,12.77
2023-05-01T08:46:55.804Z,12.77
2023-05-01T08:48:01.776Z,12.75
2023-05-01T08:49:11.486Z,12.74
2023-05-01T08:50:17.458Z,12.75
2023-05-01T08:51:21.283Z,12.73
2023-05-01T08:52:24.113Z,12.64
2023-05-01T08:53:27.066Z,12.66
2023-05-01T08:54:31.294Z,12.66
2023-05-01T08:55:37.540Z,12.63
2023-05-01T08:56:39.429Z,12.67
2023-05-01T08:57:46.584Z,12.67
2023-05-01T08:58:49.891Z,12.64
2023-05-01T08:59:56.430Z,12.66
2023-05-01T09:00:58.301Z,12.61
2023-05-01T09:02:05.890Z,12.62
2023-05-01T09:03:11.485Z,12.60
2023-05-01T09:04:17.318Z,12.60
2023-05-01T09:05:20.359Z,12.62
2023-05-01T09:06:22.758Z,12.60
2023-05-01T09:07:25.551Z,12.57
2023-05-01T09:08:30.266Z,12.55
2023-05-01T09:09:34.560Z,12.51
2023-05-01T09:10:41.283Z,12.52
2023-05-01T09:11:45.128Z,12.52
2023-05-01T09:12:56.431Z,12.52
2023-05-01T09:14:00.449Z,12.55
2023-05-01T09:15:03.555Z,12.51
2023-05-01T09:16:08.359Z,12.53
2023-05-01T09:17:10.289Z,12.54
2023-05-01T09:18:12.915Z,12.58
2023-05-01T09:19:14.948Z,12.62
2023-05-01T09:20:18.627Z,12.66
2023-05-01T09:21:20.610Z,12.61
2023-05-01T09:22:24.741Z,12.66
2023-05-01T09:23:26.437Z,12.70
2023-05-01T09:24:28.163Z,12.80
2023-05-01T09:25:32.242Z,12.84
2023-05-01T09:26:36.881Z,12.88
2023-05-01T09:27:41.334Z,12.95
2023-05-01T09:28:52.061Z,12.97
2023-05-01T09:29:58.435Z,13.00
2023-05-01T09:31:00.290Z,13.11
2023-05-01T09:32:16.202Z,13.09
2023-05-01T09:33:17.861Z,13.17
2023-05-01T09:34:21.870Z,13.08
2023-05-01T09:35:23.535Z,13.17
2023-05-01T09:36:28.020Z,13.17
2023-05-01T09:37:33.982Z,13.13
2023-05-01T09:38:35.630Z,13.15
2023-05-01T09:39:37.978Z,13.12
2023-05-01T09:40:41.917Z,13.15
2023-05-01T09:41:55.567Z,13.12
2023-05-01T09:42:57.212Z,13.17
2023-05-01T09:43:59.348Z,13.03
2023-05-01T09:45:03.742Z,13.14
2023-05-01T09:46:12.784Z,13.21
2023-05-01T09:47:22.887Z,13.23
2023-05-01T09:48:24.583Z,13.32
2023-05-01T09:49:48.193Z,13.28
2023-05-01T09:50:50.816Z,13.36
2023-05-01T09:51:52.441Z,13.37
2023-05-01T09:52:56.773Z,13.38
2023-05-01T09:54:01.415Z,13.34
2023-05-01T09:55:16.965Z,13.34
2023-05-01T09:56:19.698Z,13.31
2023-05-01T09:57:50.194Z,13.19
2023-05-01T09:58:53.789Z,13.24
2023-05-01T10:00:02.849Z,13.16
2023-05-01T10:01:06.835Z,13.18
2023-05-01T10:02:28.561Z,13.05
2023-05-01T10:03:34.953Z,13.09
2023-05-01T10:04:36.702Z,13.09
2023-05-01T10:05:44.675Z,13.03
2023-05-01T10:06:46.433Z,12.98
2023-05-01T10:08:02.442Z,12.95
2023-05-01T10:09:05.522Z,12.96
2023-05-01T10:10:20.281Z,12.83
2023-05-01T10:11:24.577Z,12.84
2023-05-01T10:12:30.427Z,12.78
2023-05-01T10:13:34.300Z,12.79
2023-05-01T10:15:07.765Z,12.68
2023-05-01T10:16:29.972Z,12.57
2023-05-01T10:17:32.859Z,12.54
2023-05-01T10:18:35.611Z,12.43
2023-05-01T10:19:37.228Z,12.42
2023-05-01T10:20:39.006Z,12.36
2023-05-01T10:21:40.841Z,12.37
2023-05-01T10:22:42.575Z,12.32
2023-05-01T10:23:44.181Z,12.30
2023-05-01T10:24:46.228Z,12.21
2023-05-01T10:25:52.372Z,12.18
2023-05-01T10:26:57.205Z,12.16
2023-05-01T10:27:59.339Z,12.12
2023-05-01T10:29:04.366Z,12.06
2023-05-01T10:30:07.275Z,12.06
2023-05-01T10:31:10.683Z,11.95
2023-05-01T10:32:12.923Z,11.96
2023-05-01T10:33:17.716Z,11.93
2023-05-01T10:34:23.830Z,11.90
2023-05-01T10:35:34.440Z,11.92
2023-05-01T10:36:45.001Z,11.89
2023-05-01T10:37:48.599Z,11.95
2023-05-01T10:38:50.288Z,11.97
2023-05-01T10:39:54.308Z,12.03
2023-05-01T10:40:58.214Z,11.87
2023-05-01T10:42:14.770Z,11.99
2023-05-01T10:43:21.007Z,12.03
2023-05-01T10:44:24.174Z,12.01
2023-05-01T10:45:30.093Z,12.05
2023-05-01T10:46:31.936Z,12.09
2023-05-01T10:47:37.733Z,12.06
2023-05-01T10:48:39.548Z,12.07
2023-05-01T10:49:59.813Z,11.86
2023-05-01T10:51:15.840Z,11.93
2023-05-01T10:52:17.535Z,11.92
2023-05-01T10:53:19.319Z,11.60
2023-05-01T10:54:21.234Z,11.87
2023-05-01T10:55:35.563Z,11.91
2023-05-01T10:56:37.123Z,12.02
2023-05-01T10:57:44.765Z,11.97
2023-05-01T10:58:51.444Z,12.07
2023-05-01T10:59:58.994Z,12.17
2023-05-01T11:01:30.014Z,12.22
2023-05-01T11:02:31.973Z,12.34
2023-05-01T11:03:36.618Z,12.43
2023-05-01T11:04:49.745Z,12.46
2023-05-01T11:06:00.942Z,12.54
2023-05-01T11:07:06.043Z,12.63
2023-05-01T11:08:33.107Z,12.59
2023-05-01T11:09:46.949Z,12.69
2023-05-01T11:10:48.493Z,12.56
2023-05-01T11:11:50.444Z,12.67
2023-05-01T11:12:57.172Z,12.73
2023-05-01T11:14:05.442Z,12.71
2023-05-01T11:15:08.360Z,12.79
2023-05-01T11:16:38.512Z,12.88
2023-05-01T11:17:43.691Z,13.02
2023-05-01T11:18:46.045Z,13.05
2023-05-01T11:19:50.846Z,13.07
2023-05-01T11:20:52.556Z,13.10
2023-05-01T11:21:55.750Z,13.15
2023-05-01T11:23:00.550Z,13.18
2023-05-01T11:24:03.784Z,13.19
2023-05-01T11:25:22.492Z,13.17
2023-05-01T11:26:24.366Z,13.23
2023-05-01T11:27:27.404Z,13.23
2023-05-01T11:28:31.032Z,13.26
2023-05-01T11:29:33.401Z,13.21
2023-05-01T11:30:42.259Z,13.28
2023-05-01T11:31:49.091Z,13.31
2023-05-01T11:32:54.778Z,13.30
2023-05-01T11:33:57.469Z,13.34
2023-05-01T11:34:59.563Z,13.46
2023-05-01T11:36:02.370Z,13.48
2023-05-01T11:37:04.075Z,13.49
2023-05-01T11:38:05.597Z,13.34
2023-05-01T11:39:15.350Z,13.24
2023-05-01T11:40:28.195Z,13.15
2023-05-01T11:41:29.951Z,13.21
2023-05-01T11:42:31.442Z,12.98
2023-05-01T11:43:33.372Z,12.91
2023-05-01T11:44:34.950Z,12.81
2023-05-01T11:45:37.571Z,13.06
2023-05-01T11:46:39.576Z,13.14
2023-05-01T11:47:41.307Z,13.07
2023-05-01T11:48:49.510Z,13.22
2023-05-01T11:49:53.490Z,13.19
2023-05-01T11:50:55.931Z,13.17
2023-05-01T11:51:59.202Z,13.17
2023-05-01T11:53:04.650Z,13.17
2023-05-01T11:54:09.448Z,13.15
2023-05-01T11:55:11.676Z,13.18
2023-05-01T11:56:27.201Z,13.15
2023-05-01T11:57:29.198Z,13.19
2023-05-01T11:58:33.432Z,13.13
2023-05-01T11:59:35.006Z,13.12
2023-05-01T12:00:41.934Z,13.13
2023-05-01T12:01:45.432Z,13.15
2023-05-01T12:03:00.948Z,13.08
2023-05-01T12:04:03.933Z,13.14
2023-05-01T12:05:18.193Z,13.13
2023-05-01T12:06:21.865Z,13.17
2023-05-01T12:07:25.770Z,13.19
2023-05-01T12:08:27.512Z,13.19
2023-05-01T12:09:29.291Z,13.05
2023-05-01T12:10:31.879Z,13.08
2023-05-01T12:11:36.763Z,13.13
2023-05-01T12:12:38.637Z,13.18
2023-05-01T12:13:43.961Z,13.08
2023-05-01T12:14:47.927Z,13.09
2023-05-01T12:15:54.739Z,13.07
2023-05-01T12:16:57.102Z,13.09
2023-05-01T12:17:58.980Z,13.07
2023-05-01T12:19:01.015Z,13.07
2023-05-01T12:20:04.420Z,13.09
2023-05-01T12:21:14.989Z,13.09
2023-05-01T12:22:16.871Z,13.07
2023-05-01T12:23:20.470Z,12.99
2023-05-01T12:24:24.203Z,12.99
2023-05-01T12:25:35.504Z,12.84
2023-05-01T12:26:37.837Z,12.98
2023-05-01T12:27:45.665Z,12.97
2023-05-01T12:28:57.601Z,12.99
2023-05-01T12:30:00.054Z,12.97
2023-05-01T12:31:05.461Z,13.01
2023-05-01T12:32:08.401Z,12.96
2023-05-01T12:33:12.770Z,13.03
2023-05-01T12:34:17.186Z,12.99
2023-05-01T12:35:21.443Z,12.94
2023-05-01T12:36:25.311Z,12.96
2023-05-01T12:37:32.342Z,12.90
2023-05-01T12:38:34.012Z,12.93
2023-05-01T12:39:44.682Z,12.74
2023-05-01T12:40:57.769Z,12.83
2023-05-01T12:41:59.877Z,12.83
2023-05-01T12:43:01.937Z,12.85
2023-05-01T12:44:24.967Z,12.79
2023-05-01T12:45:26.670Z,12.90
2023-05-01T12:46:28.383Z,12.66
2023-05-01T12:47:37.716Z,12.73
2023-05-01T12:48:42.734Z,12.77
2023-05-01T12:49:44.562Z,12.77
2023-05-01T12:50:47.502Z,12.53
2023-05-01T12:51:53.157Z,12.72
2023-05-01T12:52:54.803Z,12.74
2023-05-01T12:53:58.213Z,12.80
2023-05-01T12:55:05.423Z,12.76
2023-05-01T12:56:07.660Z,12.84
2023-05-01T12:57:16.656Z,12.80
2023-05-01T12:58:18.597Z,12.82
2023-05-01T12:59:26.276Z,12.78
2023-05-01T13:00:27.917Z,12.71
2023-05-01T13:01:32.606Z,12.49
2023-05-01T13:02:36.811Z,12.54
2023-05-01T13:03:44.030Z,12.61
2023-05-01T13:04:49.157Z,12.62
2023-05-01T13:05:52.866Z,12.64
2023-05-01T13:06:58.317Z,12.64
2023-05-01T13:07:59.999Z,12.70
2023-05-01T13:09:09.628Z,12.52
2023-05-01T13:10:11.350Z,12.67
2023-05-01T13:11:16.999Z,12.59
2023-05-01T13:12:18.843Z,12.83
2023-05-01T13:13:26.954Z,12.78
2023-05-01T13:14:36.872Z,12.95
2023-05-01T13:15:38.603Z,13.05
2023-05-01T13:16:45.575Z,12.87
2023-05-01T13:17:47.726Z,13.00
2023-05-01T13:18:51.433Z,13.04
2023-05-01T13:19:54.933Z,13.05
2023-05-01T13:20:56.532Z,13.09
2023-05-01T13:21:58.685Z,13.14
2023-05-01T13:23:03.217Z,13.17
2023-05-01T13:24:05.109Z,13.13
2023-05-01T13:25:20.588Z,13.08
2023-05-01T13:26:33.560Z,13.04
2023-05-01T13:27:35.206Z,13.15
2023-05-01T13:28:41.810Z,13.05
2023-05-01T13:29:45.637Z,13.10
2023-05-01T13:30:47.256Z,13.20
2023-05-01T13:31:48.861Z,13.13
2023-05-01T13:32:50.578Z,13.25
2023-05-01T13:33:53.476Z,13.19
2023-05-01T13:34:55.923Z,13.28
2023-05-01T13:35:57.489Z,13.36
2023-05-01T13:37:00.847Z,13.39
2023-05-01T13:38:03.838Z,13.43
2023-05-01T13:39:05.497Z,13.40
2023-05-01T13:40:07.357Z,13.25
2023-05-01T13:41:20.393Z,13.31
2023-05-01T13:42:26.570Z,13.48
2023-05-01T13:43:28.138Z,13.54
2023-05-01T13:44:32.127Z,13.61
2023-05-01T13:45:33.871Z,13.67
2023-05-01T13:46:38.165Z,13.55
2023-05-01T13:47:41.729Z,13.72
2023-05-01T13:48:44.115Z,13.78
2023-05-01T13:49:46.060Z,13.79
2023-05-01T13:50:48.271Z,13.76
2023-05-01T13:51:52.726Z,13.78
2023-05-01T13:52:54.369Z,13.73
2023-05-01T13:53:56.249Z,13.46
2023-05-01T13:55:02.145Z,13.59
2023-05-01T13:56:10.482Z,13.57
2023-05-01T13:57:12.605Z,13.61
2023-05-01T13:58:14.238Z,13.63
2023-05-01T13:59:16.142Z,13.62
2023-05-01T14:00:17.997Z,13.44
2023-05-01T14:01:22.845Z,13.31
2023-05-01T14:02:28.530Z,13.31
2023-05-01T14:03:40.344Z,13.22